Time;durP1;ratioP1;P1;durP2;ratioP2;P2;SDS_P1;SDS_P2;PMS_P1;PMS_P2;Temp;Humidity;BMP_temperature;BMP_pressure;BME280_temperature;BME280_humidity;BME280_pressure;Samples;Min_cycle;Max_cycle;Signal;HPM_P1;HPM_P2
2022/11/27 00:01:40;;;;;;;;;14.25;9.00;;;;;6.09;91.41;101643.53;6133603;23;45379;-92
2022/11/27 00:04:09;;;;;;;;;20.75;17.75;;;;;5.68;90.99;101599.09;6155288;23;45386;-90
2022/11/27 00:06:35;;;;;;;;;16.25;14.50;;;;;5.45;91.54;101568.13;6133015;23;46768;-91
2022/11/27 00:09:04;;;;;;;;;14.75;13.25;;;;;5.36;91.28;101531.28;6136272;23;45137;-91
2022/11/27 00:18:32;;;;;;;;;18.00;16.00;;;;;5.36;91.92;101520.78;6103754;23;45396;-92
2022/11/27 00:21:11;;;;;;;;;18.50;18.25;;;;;4.90;92.10;101438.75;6074666;23;45395;-93
2022/11/27 00:23:37;;;;;;;;;17.50;15.75;;;;;5.40;91.42;101548.78;6111449;23;44629;-92
2022/11/27 00:26:04;;;;;;;;;20.50;18.25;;;;;4.92;91.90;101429.16;6109705;23;45305;-93
2022/11/27 00:28:31;;;;;;;;;16.75;16.75;;;;;5.09;91.86;101476.63;6109124;23;46694;-92
2022/11/27 00:31:28;;;;;;;;;16.75;16.75;;;;;4.15;91.44;101276.00;6108404;23;44795;-94
2022/11/27 00:34:01;;;;;;;;;17.00;15.25;;;;;5.03;91.13;101421.50;6076027;23;44752;-93
2022/11/27 00:36:29;;;;;;;;;11.75;11.75;;;;;5.48;91.54;101513.09;6102522;23;45590;-94
2022/11/27 00:38:57;;;;;;;;;13.75;12.75;;;;;4.84;91.74;101383.63;6107282;23;48304;-91
2022/11/27 00:41:26;;;;;;;;;14.00;13.25;;;;;4.55;91.34;101336.88;6097095;23;45269;-92
2022/11/27 00:44:12;;;;;;;;;11.25;11.25;;;;;5.36;91.64;101473.59;6097759;23;45355;-92
2022/11/27 00:46:40;;;;;;;;;15.50;11.50;;;;;5.00;91.43;101390.00;6103953;23;45445;-91
2022/11/27 00:49:10;;;;;;;;;11.50;11.50;;;;;5.59;91.55;101489.66;6101204;23;45205;-92
2022/11/27 00:51:48;;;;;;;;;16.00;12.75;;;;;5.16;91.70;101434.81;6105527;23;45328;-92
2022/11/27 00:54:19;;;;;;;;;13.75;11.00;;;;;5.06;91.59;101400.59;6137833;23;45320;-92
2022/11/27 00:56:45;;;;;;;;;14.25;13.00;;;;;4.16;91.34;101248.97;6153189;23;45217;-92
2022/11/27 00:59:10;;;;;;;;;9.25;8.75;;;;;5.70;91.46;101510.81;6143347;23;45390;-93
2022/11/27 01:02:15;;;;;;;;;16.75;11.00;;;;;6.15;92.21;101577.97;6167467;23;44765;-92
2022/11/27 01:04:44;;;;;;;;;13.50;12.00;;;;;5.34;91.34;101455.22;6164606;23;45316;-92
2022/11/27 01:07:12;;;;;;;;;15.50;13.00;;;;;6.15;91.38;101585.84;6159694;23;45231;-91
2022/11/27 01:09:38;;;;;;;;;9.00;8.50;;;;;5.57;91.32;101490.50;6146482;23;47679;-92
2022/11/27 01:12:04;;;;;;;;;10.00;9.00;;;;;5.24;91.34;101423.56;6112404;23;45219;-91
2022/11/27 01:14:29;;;;;;;;;12.75;11.00;;;;;5.81;91.38;101511.84;6131459;23;45149;-92
2022/11/27 01:16:55;;;;;;;;;13.75;13.50;;;;;4.96;91.41;101371.63;6130542;23;45247;-90
2022/11/27 01:19:20;;;;;;;;;17.75;12.50;;;;;5.26;91.22;101427.09;6156766;23;47140;-92
2022/11/27 01:21:46;;;;;;;;;11.75;9.00;;;;;6.11;91.50;101588.41;6133323;23;45322;-91
2022/11/27 01:24:14;;;;;;;;;11.50;11.25;;;;;5.44;91.86;101465.84;6141725;23;45399;-92
2022/11/27 01:26:40;;;;;;;;;10.50;10.50;;;;;4.93;91.43;101368.06;6111685;23;45435;-91
2022/11/27 01:29:05;;;;;;;;;12.50;11.75;;;;;4.99;91.70;101386.50;6144069;23;47694;-90
2022/11/27 01:31:33;;;;;;;;;13.00;10.25;;;;;4.16;90.77;101235.88;6166385;23;45204;-92
2022/11/27 01:34:07;;;;;;;;;11.00;9.25;;;;;6.10;91.86;101558.63;6143244;23;45205;-92
2022/11/27 01:36:34;;;;;;;;;13.00;12.50;;;;;5.68;91.14;101487.19;6170247;23;45085;-91
2022/11/27 01:39:03;;;;;;;;;16.50;14.50;;;;;5.23;91.10;101408.72;6134171;23;46375;-91
2022/11/27 01:41:32;;;;;;;;;15.25;12.00;;;;;6.02;91.51;101549.78;6156838;23;45266;-92
2022/11/27 01:44:23;;;;;;;;;12.50;11.25;;;;;6.07;91.76;101542.84;6130223;23;45153;-92
2022/11/27 01:47:18;;;;;;;;;13.50;9.25;;;;;6.07;91.34;101537.59;6132143;23;45390;-93
2022/11/27 01:49:49;;;;;;;;;10.50;10.50;;;;;5.80;91.13;101506.56;6138184;23;47390;-92
2022/11/27 01:52:23;;;;;;;;;8.75;8.75;;;;;5.96;91.31;101528.69;6161480;23;45201;-92
2022/11/27 01:54:55;;;;;;;;;10.50;8.75;;;;;6.06;91.84;101541.09;6136367;23;45218;-91
2022/11/27 01:57:26;;;;;;;;;11.00;8.75;;;;;6.05;91.65;101545.44;6183034;23;45146;-91
2022/11/27 01:59:55;;;;;;;;;15.25;10.75;;;;;5.68;91.53;101488.94;6146162;23;46072;-93
2022/11/27 02:02:20;;;;;;;;;20.50;12.50;;;;;6.07;91.36;101562.97;6139515;23;45198;-91
2022/11/27 02:04:46;;;;;;;;;18.50;13.00;;;;;4.90;91.16;101331.31;6130795;23;45273;-91
2022/11/27 02:07:11;;;;;;;;;13.25;13.25;;;;;4.41;91.01;101242.41;6132356;23;45571;-91
2022/11/27 02:09:42;;;;;;;;;12.25;11.00;;;;;5.99;91.16;101516.50;6137398;23;47003;-92
2022/11/27 02:12:24;;;;;;;;;15.00;11.00;;;;;6.06;90.74;101509.59;6159991;23;45288;-91
2022/11/27 02:15:12;;;;;;;;;10.50;10.50;;;;;5.67;91.43;101468.78;6176969;23;45117;-92
2022/11/27 02:18:14;;;;;;;;;15.75;11.25;;;;;6.06;91.36;101535.84;6131987;23;45490;-91
2022/11/27 02:20:49;;;;;;;;;11.50;11.00;;;;;5.47;91.31;101447.53;6135952;23;48335;-92
2022/11/27 02:23:48;;;;;;;;;9.25;9.25;;;;;5.98;91.27;101513.84;6163110;23;45285;-91
2022/11/27 02:26:29;;;;;;;;;9.25;7.50;;;;;6.06;91.33;101525.34;6143182;23;45224;-90
2022/11/27 02:29:17;;;;;;;;;10.00;9.25;;;;;5.26;91.69;101406.13;6139692;23;44838;-90
2022/11/27 02:32:11;;;;;;;;;12.25;10.50;;;;;6.06;91.39;101530.59;6155675;23;46870;-92
2022/11/27 02:34:50;;;;;;;;;13.25;11.75;;;;;4.98;91.05;101353.31;6143071;23;45213;-92
2022/11/27 02:37:48;;;;;;;;;8.50;8.50;;;;;6.07;90.95;101527.09;6145609;23;45193;-91
2022/11/27 02:40:41;;;;;;;;;11.00;11.00;;;;;5.39;91.33;101405.47;6178118;23;45577;-91
2022/11/27 02:43:18;;;;;;;;;15.75;13.00;;;;;6.09;91.15;101514.00;6153670;23;46626;-93
2022/11/27 02:45:47;;;;;;;;;10.00;8.25;;;;;4.86;91.75;101327.78;6159912;23;45221;-90
2022/11/27 02:48:16;;;;;;;;;12.25;10.25;;;;;4.90;91.57;101321.72;6159591;23;45410;-91
2022/11/27 02:50:54;;;;;;;;;8.25;8.25;;;;;4.17;90.66;101185.31;6159961;23;45229;-90
2022/11/27 02:53:25;;;;;;;;;9.50;9.50;;;;;5.20;91.54;101346.63;6165801;23;46788;-91
2022/11/27 02:55:56;;;;;;;;;9.25;8.00;;;;;5.16;91.58;101337.84;6144730;23;45473;-91
2022/11/27 02:58:29;;;;;;;;;8.75;8.75;;;;;4.09;90.64;101157.28;6141213;23;44861;-89
2022/11/27 03:00:56;;;;;;;;;12.25;12.25;;;;;5.05;91.04;101289.63;6141448;23;45205;-91
2022/11/27 03:03:27;;;;;;;;;9.50;7.00;;;;;5.04;90.81;101297.47;6130377;23;46622;-91
2022/11/27 03:06:00;;;;;;;;;13.25;8.25;;;;;5.72;90.58;101421.63;6131150;23;45215;-92
2022/11/27 03:08:37;;;;;;;;;8.50;8.50;;;;;5.75;91.09;101425.16;6128795;23;45387;-91
2022/11/27 03:11:06;;;;;;;;;8.00;7.75;;;;;4.03;90.77;101127.53;6162461;23;45098;-92
2022/11/27 03:13:41;;;;;;;;;12.00;8.00;;;;;5.30;90.58;101355.53;6156065;23;46833;-92
2022/11/27 03:16:16;;;;;;;;;12.75;11.75;;;;;4.84;90.69;101264.00;6138521;23;45428;-92
2022/11/27 03:18:57;;;;;;;;;8.00;7.00;;;;;4.88;91.04;101275.41;6142146;23;44778;-92
2022/11/27 03:21:41;;;;;;;;;7.75;6.00;;;;;5.18;90.77;101313.38;6166520;23;45296;-91
2022/11/27 03:24:08;;;;;;;;;8.50;7.50;;;;;4.38;90.84;101196.13;6148745;23;46943;-92
2022/11/27 03:26:37;;;;;;;;;12.75;12.00;;;;;5.54;91.12;101369.81;6154361;23;45316;-91
2022/11/27 03:29:08;;;;;;;;;8.75;8.75;;;;;5.31;90.57;101317.94;6158455;23;45422;-90
2022/11/27 03:31:33;;;;;;;;;8.50;8.50;;;;;4.98;90.62;101277.31;6131380;23;45496;-92
2022/11/27 03:34:00;;;;;;;;;13.50;10.75;;;;;4.76;90.83;101235.06;6160836;23;45368;-91
2022/11/27 03:36:26;;;;;;;;;9.25;6.75;;;;;4.64;90.51;101219.19;6159683;23;45482;-90
2022/11/27 03:38:54;;;;;;;;;7.75;7.25;;;;;4.74;90.35;101209.75;6134611;23;45335;-92
2022/11/27 03:41:20;;;;;;;;;11.75;7.50;;;;;6.00;90.80;101436.03;6151828;23;45497;-92
2022/11/27 03:43:57;;;;;;;;;9.50;9.50;;;;;4.32;90.45;101146.28;6141332;23;46944;-93
2022/11/27 03:47:06;;;;;;;;;8.25;6.00;;;;;5.28;90.93;101316.19;6138803;23;45371;-91
2022/11/27 03:49:56;;;;;;;;;11.00;9.00;;;;;5.98;91.20;101411.50;6150926;23;44808;-92
2022/11/27 03:52:47;;;;;;;;;10.00;10.00;;;;;5.95;91.58;101411.44;6152594;23;44801;-92
2022/11/27 03:55:27;;;;;;;;;12.00;11.00;;;;;4.03;91.19;101073.47;6169565;23;45586;-93
2022/11/27 03:58:04;;;;;;;;;8.00;7.00;;;;;5.52;91.38;101333.94;6139901;23;45184;-94
2022/11/27 04:00:34;;;;;;;;;10.00;8.00;;;;;4.69;91.42;101214.91;6143579;23;45202;-92
2022/11/27 04:03:03;;;;;;;;;8.75;8.75;;;;;3.94;90.33;101062.88;6137361;23;44930;-92
2022/11/27 04:05:34;;;;;;;;;6.00;4.25;;;;;5.55;90.91;101335.72;6134077;23;46190;-93
2022/11/27 04:08:00;;;;;;;;;11.00;7.75;;;;;5.50;91.34;101332.19;6158096;23;45502;-93
2022/11/27 04:10:26;;;;;;;;;11.00;10.50;;;;;4.92;91.44;101251.00;6136223;23;45214;-92
2022/11/27 04:12:51;;;;;;;;;11.00;8.00;;;;;5.75;91.18;101377.06;6131843;23;45274;-92
2022/11/27 04:15:18;;;;;;;;;9.25;7.75;;;;;4.76;91.55;101216.75;6134148;23;47935;-92
2022/11/27 04:17:44;;;;;;;;;11.75;9.25;;;;;5.10;91.80;101274.88;6145848;23;44599;-91
2022/11/27 04:20:14;;;;;;;;;5.00;4.25;;;;;4.50;91.27;101173.63;6121452;23;45234;-91
2022/11/27 04:22:40;;;;;;;;;11.00;8.50;;;;;4.49;91.15;101158.75;6148969;23;45352;-93
2022/11/27 04:25:06;;;;;;;;;8.50;7.25;;;;;4.20;91.15;101110.34;6190651;23;48103;-93
2022/11/27 04:27:31;;;;;;;;;7.25;4.50;;;;;4.67;91.42;101181.69;6136913;23;45225;-92
2022/11/27 04:29:57;;;;;;;;;8.00;8.00;;;;;5.97;90.99;101409.75;6132903;23;45161;-93
2022/11/27 04:32:24;;;;;;;;;9.25;8.75;;;;;5.25;91.61;101273.28;6130640;23;45174;-93
2022/11/27 04:34:49;;;;;;;;;9.75;7.50;;;;;5.47;91.44;101301.53;6159288;23;46461;-93
2022/11/27 04:37:15;;;;;;;;;7.25;7.25;;;;;4.90;91.46;101201.22;6184727;23;45169;-91
2022/11/27 04:39:42;;;;;;;;;12.75;9.25;;;;;5.08;91.47;101223.28;6157795;23;45260;-92
2022/11/27 04:42:08;;;;;;;;;9.00;6.50;;;;;4.26;91.06;101096.47;6137011;23;45257;-92
2022/11/27 04:44:37;;;;;;;;;7.00;7.00;;;;;5.31;91.29;101289.09;6140574;23;45351;-93
2022/11/27 04:47:02;;;;;;;;;3.75;2.50;;;;;5.90;91.79;101377.25;6145692;23;45229;-93
2022/11/27 04:49:28;;;;;;;;;11.00;7.25;;;;;5.78;91.87;101341.25;6148256;23;45206;-93
2022/11/27 04:51:53;;;;;;;;;8.00;8.00;;;;;5.31;91.85;101261.16;6147221;23;45500;-93
2022/11/27 04:54:21;;;;;;;;;10.75;8.00;;;;;4.87;91.75;101167.13;6162317;23;45442;-94
2022/11/27 04:56:46;;;;;;;;;12.00;7.25;;;;;5.16;91.56;101219.91;6108768;23;45375;-90
2022/11/27 04:59:14;;;;;;;;;7.75;7.75;;;;;5.23;91.10;101222.59;6140393;23;45255;-93
2022/11/27 05:05:02;;;;;;;;;14.25;11.50;;;;;4.96;91.13;101163.72;6156014;23;45362;-92
2022/11/27 05:07:28;;;;;;;;;13.75;9.00;;;;;5.08;91.10;101184.84;6132158;23;45866;-95
2022/11/27 05:09:53;;;;;;;;;12.00;9.25;;;;;5.91;91.05;101315.19;6141452;23;45415;-94
2022/11/27 05:12:18;;;;;;;;;11.00;8.50;;;;;4.40;90.74;101058.31;6140934;23;45176;-92
2022/11/27 05:14:44;;;;;;;;;11.00;7.75;;;;;5.19;91.06;101171.88;6170307;23;46746;-93
2022/11/27 05:17:09;;;;;;;;;11.00;9.00;;;;;5.43;91.10;101223.69;6140814;23;44844;-93
2022/11/27 05:19:43;;;;;;;;;10.25;9.25;;;;;5.15;91.64;101170.97;6143483;23;45297;-93
2022/11/27 05:22:09;;;;;;;;;12.75;8.75;;;;;4.87;90.92;101137.44;6145384;23;45301;-93
2022/11/27 05:24:36;;;;;;;;;4.25;3.00;;;;;4.89;91.28;101151.41;6143357;23;46816;-93
2022/11/27 05:27:04;;;;;;;;;9.50;8.75;;;;;4.60;91.44;101087.34;6146734;23;44580;-94
2022/11/27 05:29:33;;;;;;;;;8.00;6.75;;;;;5.18;91.39;101204.19;6137693;23;45126;-92
2022/11/27 05:31:58;;;;;;;;;10.50;10.50;;;;;5.43;90.91;101255.16;6141104;23;45574;-92
2022/11/27 05:34:24;;;;;;;;;10.00;10.00;;;;;5.08;91.71;101186.59;6138246;23;48200;-92
2022/11/27 05:36:50;;;;;;;;;11.00;9.75;;;;;4.35;91.33;101075.66;6158492;23;45205;-93
2022/11/27 05:39:15;;;;;;;;;5.25;2.00;;;;;4.20;90.86;101054.53;6141073;23;45263;-92
2022/11/27 05:41:44;;;;;;;;;13.25;9.25;;;;;3.78;91.69;100985.03;6164123;23;45007;-91
2022/11/27 05:44:13;;;;;;;;;11.25;9.25;;;;;4.02;91.29;101015.91;6123990;23;46665;-91
2022/11/27 05:46:47;;;;;;;;;8.50;8.50;;;;;5.89;91.59;101344.03;6143662;23;44798;-92
2022/11/27 05:49:14;;;;;;;;;14.75;13.25;;;;;5.28;91.65;101213.03;6145014;23;44742;-93
2022/11/27 05:51:48;;;;;;;;;7.00;5.50;;;;;5.58;91.86;101264.97;6165748;23;45266;-90
2022/11/27 05:54:14;;;;;;;;;8.50;8.00;;;;;5.37;91.85;101223.63;6164622;23;45273;-93
2022/11/27 05:56:39;;;;;;;;;11.75;11.00;;;;;5.23;92.10;101199.00;6133450;23;45383;-93
2022/11/27 05:59:05;;;;;;;;;10.00;8.00;;;;;5.49;91.32;101265.72;6135749;23;45385;-92
2022/11/27 06:01:32;;;;;;;;;10.50;10.50;;;;;3.97;91.73;100989.69;6135992;23;45299;-93
2022/11/27 06:04:05;;;;;;;;;15.75;12.75;;;;;5.91;91.39;101328.31;6166223;23;46181;-92
2022/11/27 06:06:31;;;;;;;;;10.50;10.25;;;;;5.47;91.29;101262.22;6144450;23;45385;-94
2022/11/27 06:08:57;;;;;;;;;6.25;4.75;;;;;5.55;92.34;101256.19;6147465;23;45221;-94
2022/11/27 06:11:24;;;;;;;;;8.00;8.00;;;;;5.87;92.54;101306.38;6143399;23;45205;-92
2022/11/27 06:13:51;;;;;;;;;9.00;8.00;;;;;4.65;91.90;101100.50;6144801;23;46876;-94
2022/11/27 06:16:21;;;;;;;;;8.50;8.50;;;;;5.86;92.33;101322.97;6144813;23;45306;-93
2022/11/27 06:18:54;;;;;;;;;10.00;9.00;;;;;4.63;92.29;101110.06;6142965;23;45129;-93
2022/11/27 06:21:23;;;;;;;;;11.25;11.25;;;;;5.43;91.73;101244.69;6139870;23;44896;-93
2022/11/27 06:23:48;;;;;;;;;4.75;4.00;;;;;4.58;92.56;101089.03;6140408;23;46250;-92
2022/11/27 06:26:22;;;;;;;;;10.50;10.00;;;;;3.91;92.65;100966.06;6148638;23;44629;-92
2022/11/27 06:28:48;;;;;;;;;11.25;10.25;;;;;4.69;92.17;101097.06;6176588;23;44585;-93
2022/11/27 06:31:17;;;;;;;;;8.00;8.00;;;;;5.55;92.50;101254.44;6140220;23;45196;-93
2022/11/27 06:33:49;;;;;;;;;12.00;10.75;;;;;4.94;92.49;101134.03;6142416;23;46927;-92
2022/11/27 06:36:15;;;;;;;;;7.25;7.00;;;;;5.30;92.58;101195.59;6137152;23;44615;-93
2022/11/27 06:38:43;;;;;;;;;10.25;7.25;;;;;4.77;92.23;101076.22;6137207;23;45140;-93
2022/11/27 06:41:15;;;;;;;;;9.00;8.50;;;;;4.68;91.93;101073.47;6106445;23;44840;-94
2022/11/27 06:43:41;;;;;;;;;13.00;11.00;;;;;3.62;91.93;100880.25;6104668;23;47503;-93
2022/11/27 06:46:16;;;;;;;;;15.00;11.50;;;;;3.96;91.81;100925.13;6110479;23;46089;-93
2022/11/27 06:51:26;;;;;;;;;11.75;8.75;;;;;4.18;91.75;100964.66;6170838;23;44877;-94
2022/11/27 06:53:54;;;;;;;;;17.75;11.50;;;;;4.80;91.79;101065.75;6123857;23;47014;-96
2022/11/27 06:56:22;;;;;;;;;9.50;7.75;;;;;4.91;92.24;101086.84;6118987;23;45264;-94
2022/11/27 06:58:54;;;;;;;;;14.25;13.25;;;;;5.23;91.74;101125.63;6141684;23;44636;-93
2022/11/27 07:01:33;;;;;;;;;9.25;8.00;;;;;4.17;91.40;100932.38;6168386;23;45554;-93
2022/11/27 07:04:01;;;;;;;;;6.50;6.50;;;;;6.11;91.89;101271.66;6146391;23;46889;-93
2022/11/27 07:06:28;;;;;;;;;3.25;1.50;;;;;4.87;92.15;101056.22;6143577;23;44691;-92
2022/11/27 07:08:54;;;;;;;;;7.75;7.00;;;;;5.10;91.99;101115.00;6147012;23;44648;-93
2022/11/27 07:11:26;;;;;;;;;11.25;10.00;;;;;5.22;91.91;101105.50;6168378;23;44766;-94
2022/11/27 07:20:33;;;;;;;;;8.50;8.25;;;;;5.04;92.32;101066.88;6177509;23;45187;-93
2022/11/27 07:23:11;;;;;;;;;12.00;10.50;;;;;5.45;92.36;101131.94;6192825;23;44910;-93
2022/11/27 07:25:37;;;;;;;;;9.50;8.75;;;;;5.34;91.98;101132.75;6114098;23;46125;-93
2022/11/27 07:28:07;;;;;;;;;8.75;7.25;;;;;4.95;92.07;101038.81;6164910;23;45189;-95
2022/11/27 07:30:37;;;;;;;;;12.75;10.75;;;;;6.12;92.23;101260.31;6138407;23;45391;-93
2022/11/27 07:33:11;;;;;;;;;10.25;8.00;;;;;5.40;92.53;101139.75;6171858;23;44834;-92
2022/11/27 07:36:13;;;;;;;;;11.50;9.25;;;;;4.22;92.81;100929.81;6143524;23;47230;-94
2022/11/27 07:38:38;;;;;;;;;10.00;9.25;;;;;4.95;91.51;101065.03;6105826;23;45347;-93
2022/11/27 07:41:05;;;;;;;;;8.50;8.50;;;;;4.99;92.10;101064.22;6146468;23;45335;-93
2022/11/27 07:43:33;;;;;;;;;11.00;9.00;;;;;6.10;92.39;101258.53;6170195;23;45228;-91
2022/11/27 07:46:16;;;;;;;;;10.75;10.50;;;;;4.74;92.71;101011.56;6179057;23;47165;-92
2022/11/27 07:48:43;;;;;;;;;11.25;10.50;;;;;6.22;92.17;101267.41;6177927;23;45124;-93
2022/11/27 07:51:11;;;;;;;;;12.50;12.00;;;;;4.22;92.39;100935.03;6146697;23;45178;-92
2022/11/27 07:53:39;;;;;;;;;11.50;9.00;;;;;4.86;92.91;101052.72;6166614;23;45366;-92
2022/11/27 07:56:12;;;;;;;;;15.25;12.75;;;;;6.17;92.61;101255.09;6143946;23;48235;-92
2022/11/27 07:58:39;;;;;;;;;11.75;10.00;;;;;5.74;92.56;101187.31;6168286;23;45471;-93
2022/11/27 08:01:07;;;;;;;;;7.50;7.50;;;;;5.41;93.41;101119.69;6166921;23;45167;-92
2022/11/27 08:03:33;;;;;;;;;11.25;7.25;;;;;5.44;93.14;101131.06;6165528;23;45230;-91
2022/11/27 08:05:58;;;;;;;;;7.00;6.75;;;;;4.49;92.88;100967.63;6163174;23;48506;-92
2022/11/27 08:08:30;;;;;;;;;10.25;10.25;;;;;4.98;93.47;101067.72;6141580;23;45241;-94
2022/11/27 08:10:56;;;;;;;;;13.75;11.75;;;;;4.28;93.30;100948.19;6169623;23;45176;-91
2022/11/27 08:13:55;;;;;;;;;13.00;9.50;;;;;4.98;92.93;101072.94;6168580;23;45562;-92
2022/11/27 08:16:24;;;;;;;;;11.50;10.75;;;;;5.62;93.51;101166.22;6150021;23;46577;-92
2022/11/27 08:18:51;;;;;;;;;11.50;7.25;;;;;5.18;93.53;101086.25;6166415;23;45238;-91
2022/11/27 08:21:18;;;;;;;;;11.25;9.25;;;;;4.96;93.80;101030.13;6173379;23;45127;-92
2022/11/27 08:23:43;;;;;;;;;10.50;8.50;;;;;5.33;93.31;101091.66;6148256;23;44910;-92
2022/11/27 08:26:15;;;;;;;;;6.25;5.00;;;;;5.55;94.01;101135.56;6163197;23;47113;-93
2022/11/27 08:28:41;;;;;;;;;14.50;13.00;;;;;4.94;93.57;101016.13;6162910;23;45287;-91
2022/11/27 08:31:08;;;;;;;;;11.00;9.75;;;;;4.41;93.19;100934.38;6169637;23;45248;-92
2022/11/27 08:34:33;;;;;;;;;13.75;12.00;;;;;5.07;93.42;101031.13;6179937;23;44922;-94
2022/11/27 08:37:21;;;;;;;;;13.25;9.50;;;;;5.85;93.83;101163.81;6076305;23;46555;-92
2022/11/27 09:15:59;;;;;;;;;12.75;11.75;;;;;6.48;94.83;101159.03;6034510;23;45383;-91
2022/11/27 09:18:53;;;;;;;;;12.75;11.00;;;;;5.74;94.31;101050.91;6104438;23;46827;-93
2022/11/27 09:21:26;;;;;;;;;10.25;9.75;;;;;5.85;94.14;101059.72;6192924;23;45220;-93
2022/11/27 09:24:12;;;;;;;;;17.75;13.00;;;;;6.58;94.15;101179.25;6171049;23;44743;-93
2022/11/27 09:26:53;;;;;;;;;14.00;8.50;;;;;5.07;94.03;100913.22;6168652;23;45271;-93
2022/11/27 09:29:30;;;;;;;;;9.75;9.00;;;;;5.25;94.04;100930.78;6169974;23;46097;-91
2022/11/27 09:32:03;;;;;;;;;12.50;12.50;;;;;5.08;93.38;100886.13;6172968;23;45210;-94
2022/11/27 09:34:32;;;;;;;;;12.50;11.00;;;;;6.05;94.18;101059.03;6174207;23;45152;-93
2022/11/27 09:37:02;;;;;;;;;10.25;10.25;;;;;5.58;94.17;100970.38;6108150;23;45236;-90
2022/11/27 09:46:22;;;;;;;;;12.75;11.50;;;;;4.59;93.97;100744.34;6135958;23;45230;-92
2022/11/27 09:49:20;;;;;;;;;14.00;11.25;;;;;6.37;93.96;101025.06;6108746;23;45441;-94
2022/11/27 09:55:26;;;;;;;;;12.75;12.50;;;;;6.13;93.81;100936.56;6139027;23;44746;-93
2022/11/27 10:04:22;;;;;;;;;7.00;7.00;;;;;5.72;93.52;100869.03;6041549;23;45256;-91
2022/11/27 10:07:12;;;;;;;;;11.00;9.75;;;;;7.14;92.97;101099.78;6052847;23;45316;-91
2022/11/27 10:09:44;;;;;;;;;11.00;10.75;;;;;7.16;93.33;101098.03;6085425;23;44627;-93
2022/11/27 10:16:19;;;;;;;;;;;;;;;;;;;;;
2022/11/27 10:22:20;;;;;;;;;14.25;12.75;;;;;5.20;92.36;100795.38;6074809;23;44601;-92
2022/11/27 10:25:06;;;;;;;;;10.50;8.75;;;;;5.86;92.74;100906.69;6049963;23;45457;-92
2022/11/27 10:27:55;;;;;;;;;11.50;9.50;;;;;7.12;92.40;101128.69;6099574;23;47221;-93
2022/11/27 10:30:21;;;;;;;;;17.50;11.50;;;;;5.50;92.22;100821.72;6084043;23;45210;-90
2022/11/27 10:32:54;;;;;;;;;13.00;11.75;;;;;7.15;92.04;101091.00;6051937;23;45314;-91
2022/11/27 10:35:24;;;;;;;;;11.75;8.00;;;;;5.67;92.99;100829.66;6048683;23;45274;-91
2022/11/27 10:38:10;;;;;;;;;11.50;9.00;;;;;5.51;92.67;100794.66;6151935;23;45469;-91
2022/11/27 10:41:06;;;;;;;;;11.25;10.50;;;;;5.29;93.04;100749.09;6134106;23;45318;-91
2022/11/27 10:43:34;;;;;;;;;11.75;9.25;;;;;7.29;93.38;101079.66;6162266;23;45317;-92
2022/11/27 10:46:45;;;;;;;;;10.75;10.75;;;;;7.34;92.54;101066.50;6133423;23;45222;-91
2022/11/27 10:49:13;;;;;;;;;12.75;11.75;;;;;6.66;93.06;100944.63;6134819;23;47448;-91
2022/11/27 10:51:40;;;;;;;;;11.75;9.25;;;;;7.11;93.29;101004.25;6160095;23;45279;-91
2022/11/27 10:54:18;;;;;;;;;12.00;12.00;;;;;7.49;92.71;101057.75;6131878;23;45423;-93
2022/11/27 10:57:08;;;;;;;;;10.00;8.00;;;;;7.51;92.43;101058.63;6166572;23;45515;-93
2022/11/27 10:59:50;;;;;;;;;13.00;11.50;;;;;5.95;91.60;100786.91;6140723;23;46663;-91
2022/11/27 11:02:34;;;;;;;;;13.75;10.00;;;;;6.42;91.26;100883.28;6142222;23;45335;-93
2022/11/27 11:05:13;;;;;;;;;18.25;13.25;;;;;6.90;91.72;100954.28;6145286;23;45239;-93
2022/11/27 11:07:39;;;;;;;;;10.00;8.50;;;;;7.05;91.54;100984.97;6144728;23;45374;-93
2022/11/27 11:10:43;;;;;;;;;10.75;10.75;;;;;5.70;90.85;100745.75;6139103;23;47059;-94
2022/11/27 11:13:18;;;;;;;;;10.25;9.00;;;;;6.39;91.46;100871.03;6163975;23;45244;-93
2022/11/27 11:16:38;;;;;;;;;14.25;12.25;;;;;6.08;91.94;100798.34;6136290;23;45494;-92
2022/11/27 11:19:20;;;;;;;;;14.25;13.00;;;;;7.55;91.11;101043.72;6164085;23;45145;-93
2022/11/27 11:21:46;;;;;;;;;14.00;11.25;;;;;5.83;90.76;100740.50;6138489;23;46721;-93
2022/11/27 11:24:15;;;;;;;;;14.00;12.75;;;;;7.68;90.45;101029.66;6133502;23;45474;-92
2022/11/27 11:26:56;;;;;;;;;14.75;12.75;;;;;7.24;90.61;100944.69;6135695;23;45385;-94
2022/11/27 11:30:16;;;;;;;;;;;;;;;;;;;;;
2022/11/27 11:36:12;;;;;;;;;14.50;12.00;;;;;7.01;91.33;100870.19;6016444;23;45349;-90
2022/11/27 11:38:45;;;;;;;;;13.25;12.25;;;;;6.48;91.42;100777.38;6011875;23;45150;-94
2022/11/27 11:41:17;;;;;;;;;15.50;13.00;;;;;6.21;90.80;100722.25;6021752;23;45591;-93
2022/11/27 11:44:00;;;;;;;;;15.00;11.50;;;;;6.99;90.79;100832.53;6057259;23;46051;-94
2022/11/27 11:56:39;;;;;;;;;11.50;10.00;;;;;7.70;90.35;100917.44;6026092;23;45354;-90
2022/11/27 12:13:12;;;;;;;;;12.75;12.00;;;;;8.31;90.57;100945.25;6080862;23;45219;-94
2022/11/27 12:15:54;;;;;;;;;10.25;9.75;;;;;8.39;89.00;100939.09;6073219;23;45186;-92
2022/11/27 12:18:44;;;;;;;;;17.00;10.00;;;;;8.45;87.98;100928.56;6049417;23;45384;-92
2022/11/27 12:21:20;;;;;;;;;7.25;5.75;;;;;7.73;85.81;100799.00;6077519;23;46839;-92
2022/11/27 12:24:19;;;;;;;;;15.25;10.00;;;;;6.40;86.16;100576.06;6166720;23;45333;-92
2022/11/27 12:27:03;;;;;;;;;11.25;8.50;;;;;8.47;87.34;100910.97;6125098;23;45233;-92
2022/11/27 12:30:01;;;;;;;;;9.00;9.00;;;;;8.43;88.07;100885.53;6137505;23;45405;-91
2022/11/27 12:32:53;;;;;;;;;16.50;13.25;;;;;8.56;87.97;100910.91;6148995;23;47052;-91
2022/11/27 12:35:37;;;;;;;;;10.50;9.75;;;;;8.61;87.79;100892.44;6148986;23;45404;-92
2022/11/27 12:38:37;;;;;;;;;19.25;13.75;;;;;8.34;87.36;100846.94;6144067;23;45384;-92
2022/11/27 12:41:11;;;;;;;;;13.50;12.75;;;;;7.96;87.54;100759.41;6140600;23;44950;-92
2022/11/27 12:50:40;;;;;;;;;11.00;8.00;;;;;7.55;87.54;100673.69;6071311;23;45395;-92
2022/11/27 12:53:20;;;;;;;;;13.50;11.75;;;;;8.17;88.22;100768.03;6050140;23;45218;-92
2022/11/27 12:55:58;;;;;;;;;11.50;11.25;;;;;7.06;88.81;100576.66;6049610;23;46902;-92
2022/11/27 12:58:30;;;;;;;;;8.25;8.25;;;;;7.89;88.89;100717.34;6051557;23;45182;-91
2022/11/27 13:01:08;;;;;;;;;11.25;10.00;;;;;7.70;89.29;100678.00;6073395;23;45285;-91
2022/11/27 13:03:47;;;;;;;;;12.50;9.00;;;;;7.49;88.41;100613.25;6077217;23;45184;-90
2022/11/27 13:06:20;;;;;;;;;15.25;10.50;;;;;8.07;87.73;100708.44;6050916;23;45459;-92
2022/11/27 13:08:55;;;;;;;;;10.50;9.25;;;;;8.80;87.73;100830.78;6050966;23;45303;-91
2022/11/27 13:11:44;;;;;;;;;13.75;10.50;;;;;7.70;87.96;100632.38;6048277;23;45396;-92
2022/11/27 13:14:24;;;;;;;;;8.50;8.25;;;;;6.89;87.74;100506.72;6047667;23;45308;-90
2022/11/27 13:16:55;;;;;;;;;13.75;12.25;;;;;8.84;88.73;100831.66;6074564;23;46845;-89
2022/11/27 13:19:39;;;;;;;;;14.50;11.00;;;;;8.84;87.40;100827.25;6126458;23;45280;-88
2022/11/27 13:22:11;;;;;;;;;12.25;10.50;;;;;8.86;87.91;100832.50;6118973;23;45253;-89
2022/11/27 13:24:37;;;;;;;;;13.50;11.00;;;;;8.19;87.10;100703.94;6179829;23;45375;-89
2022/11/27 13:27:09;;;;;;;;;14.75;12.00;;;;;8.87;86.60;100810.53;6157757;23;46676;-89
2022/11/27 13:29:53;;;;;;;;;11.75;11.25;;;;;8.28;86.83;100712.66;6175265;23;45196;-91
2022/11/27 13:32:25;;;;;;;;;10.00;10.00;;;;;7.76;86.89;100627.09;6175327;23;45137;-92
2022/11/27 13:34:54;;;;;;;;;11.00;11.00;;;;;8.46;87.79;100730.09;6176694;23;44858;-90
2022/11/27 13:43:46;;;;;;;;;13.00;9.75;;;;;8.29;86.33;100665.25;6193043;23;45262;-93
2022/11/27 13:46:52;;;;;;;;;12.00;10.00;;;;;8.05;86.98;100623.31;6198635;23;45458;-91
2022/11/27 13:49:32;;;;;;;;;10.00;10.00;;;;;8.14;84.70;100628.53;6155875;23;46766;-89
2022/11/27 13:52:20;;;;;;;;;11.50;9.00;;;;;8.00;86.69;100608.47;6159314;23;45421;-89
2022/11/27 13:54:57;;;;;;;;;10.50;10.00;;;;;7.85;86.94;100584.00;6186445;23;45281;-89
2022/11/27 13:57:23;;;;;;;;;11.00;9.75;;;;;8.11;87.95;100624.16;6159776;23;45561;-89
2022/11/27 14:00:05;;;;;;;;;9.50;9.25;;;;;8.95;86.83;100755.97;6163054;23;47040;-89